This is the latest recevied weather packets stored in our database for station/object IZ1UQG-N2. If no packets are shown the sender has not sent any weather packets the latest 10 day(s).
| Time | Temp. | Humidity | Pressure | Rain* | Wind** | Luminosity | Snow |
|---|---|---|---|---|---|---|---|
| 1778257514 | 19.44° C | 59% | 1012.8 hPa | 0 mm | - | 308 W/m² | - |
| 1778257509 | 19.44° C | 59% | 1012.8 hPa | 0 mm | - | 308 W/m² | - |
| 1778257453 | 19.44° C | 58% | 1012.8 hPa | 0 mm | - | 316 W/m² | - |
| 1778257393 | 19.44° C | 59% | 1012.7 hPa | 0 mm | - | 264 W/m² | - |
| 1778257333 | 19.44° C | 58% | 1012.8 hPa | 0 mm | - | 309 W/m² | - |
| 1778257330 | 19.44° C | 58% | 1012.8 hPa | 0 mm | - | 309 W/m² | - |
| 1778257273 | 19.44° C | 58% | 1012.8 hPa | 0 mm | - | 329 W/m² | - |
| 1778257213 | 19.44° C | 58% | 1012.7 hPa | 0 mm | - | 332 W/m² | - |
| 1778257153 | 19.44° C | 58% | 1012.7 hPa | 0 mm | - | 327 W/m² | - |
| 1778257151 | 19.44° C | 58% | 1012.7 hPa | 0 mm | - | 327 W/m² | - |
| 1778257094 | 20° C | 57% | 1012.6 hPa | 0 mm | - | 272 W/m² | - |
| 1778257034 | 20° C | 57% | 1012.7 hPa | 0 mm | - | 343 W/m² | - |
| 1778256973 | 20° C | 57% | 1012.7 hPa | 0 mm | - | 332 W/m² | - |
| 1778256971 | 20° C | 57% | 1012.7 hPa | 0 mm | - | 332 W/m² | - |
| 1778256913 | 20° C | 58% | 1012.6 hPa | 0 mm | - | 241 W/m² | - |
| 1778256852 | 20° C | 59% | 1012.7 hPa | 0 mm | - | 346 W/m² | - |
| 1778256793 | 20° C | 59% | 1012.6 hPa | 0 mm | - | 353 W/m² | - |
| 1778256789 | 20° C | 59% | 1012.6 hPa | 0 mm | - | 353 W/m² | - |
| 1778256733 | 20° C | 59% | 1012.8 hPa | 0 mm | - | 359 W/m² | - |
| 1778256673 | 20° C | 59% | 1012.8 hPa | 0 mm | - | 360 W/m² | - |
| 1778256613 | 20° C | 59% | 1012.7 hPa | 0 mm | - | 364 W/m² | - |
| 1778256611 | 20° C | 59% | 1012.7 hPa | 0 mm | - | 364 W/m² | - |
| 1778256552 | 20° C | 59% | 1012.7 hPa | 0 mm | - | 369 W/m² | - |
| 1778256492 | 20° C | 59% | 1012.8 hPa | 0 mm | - | 374 W/m² | - |
| 1778256434 | 20° C | 59% | 1012.7 hPa | 0 mm | - | 381 W/m² | - |
* Rain latest hour (hover to see other rain measurements)
** Current wind speed in m/s (hover to see current wind gust speed)